Time;durP1;ratioP1;P1;durP2;ratioP2;P2;SDS_P1;SDS_P2;PMS_P1;PMS_P2;Temp;Humidity;BMP_temperature;BMP_pressure;BME280_temperature;BME280_humidity;BME280_pressure;Samples;Min_cycle;Max_cycle;Signal;HPM_P1;HPM_P2
2023/02/15 00:00:05;;;;;;;12.25;9.57;;;22.90;37.40;;;;;;5096348;28;20035;-63
2023/02/15 00:02:32;;;;;;;12.30;10.52;;;22.80;37.60;;;;;;5103565;28;20535;-64
2023/02/15 00:04:59;;;;;;;14.25;11.10;;;22.80;37.70;;;;;;5106978;28;20122;-63
2023/02/15 00:07:28;;;;;;;15.38;11.43;;;22.70;37.70;;;;;;5106802;28;20508;-63
2023/02/15 00:09:56;;;;;;;14.45;10.68;;;22.70;37.80;;;;;;5106746;28;20519;-62
2023/02/15 00:12:23;;;;;;;12.77;11.00;;;22.70;37.90;;;;;;5106839;28;20058;-63
2023/02/15 00:14:50;;;;;;;13.10;10.38;;;22.60;37.90;;;;;;5106645;28;20135;-62
2023/02/15 00:17:19;;;;;;;12.07;9.63;;;22.60;38.20;;;;;;5106767;28;20108;-63
2023/02/15 00:19:46;;;;;;;11.63;9.63;;;22.60;38.30;;;;;;5102137;28;20093;-63
2023/02/15 00:22:13;;;;;;;16.25;11.27;;;22.60;38.40;;;;;;5086236;28;20119;-62
2023/02/15 00:24:40;;;;;;;12.27;9.40;;;22.50;38.50;;;;;;5093112;28;20039;-62
2023/02/15 00:27:08;;;;;;;14.57;10.65;;;22.40;38.60;;;;;;5106770;28;20050;-61
2023/02/15 00:29:36;;;;;;;15.30;10.48;;;22.40;38.80;;;;;;5095766;28;20047;-63
2023/02/15 00:32:03;;;;;;;14.50;11.10;;;22.40;38.80;;;;;;5086099;28;20520;-63
2023/02/15 00:34:31;;;;;;;13.65;9.88;;;22.30;38.80;;;;;;5101677;28;20069;-62
2023/02/15 00:36:59;;;;;;;17.23;10.90;;;22.30;39.00;;;;;;5105253;28;20092;-62
2023/02/15 00:39:27;;;;;;;14.23;10.93;;;22.30;39.10;;;;;;5105312;28;20059;-62
2023/02/15 00:41:54;;;;;;;13.48;10.13;;;22.20;39.00;;;;;;5101118;28;20050;-62
2023/02/15 00:44:22;;;;;;;15.25;10.45;;;22.20;39.00;;;;;;5085902;28;20533;-62
2023/02/15 00:46:49;;;;;;;13.13;10.52;;;22.10;38.90;;;;;;5086266;28;20576;-62
2023/02/15 00:49:16;;;;;;;12.35;9.95;;;22.10;39.00;;;;;;5098325;28;20059;-62
2023/02/15 00:51:44;;;;;;;13.05;10.13;;;22.10;39.10;;;;;;5104871;28;20043;-63
2023/02/15 00:54:11;;;;;;;13.55;10.45;;;22.10;39.20;;;;;;5104828;28;20047;-61
2023/02/15 00:56:38;;;;;;;13.27;10.35;;;22.00;39.10;;;;;;5104635;28;20035;-62
2023/02/15 00:59:05;;;;;;;13.00;10.27;;;22.00;39.10;;;;;;5104808;28;20473;-61
2023/02/15 01:01:34;;;;;;;16.80;11.57;;;22.00;39.10;;;;;;5104346;28;20712;-62
2023/02/15 01:04:01;;;;;;;11.77;10.43;;;21.90;39.10;;;;;;5098038;28;20071;-62
2023/02/15 01:06:30;;;;;;;13.27;10.57;;;21.90;39.70;;;;;;5084294;28;20575;-62
2023/02/15 01:08:58;;;;;;;10.70;9.60;;;21.90;39.10;;;;;;5084398;28;20044;-61
2023/02/15 01:11:25;;;;;;;13.02;9.90;;;21.90;39.20;;;;;;5083990;28;20052;-62
2023/02/15 01:13:53;;;;;;;14.32;10.70;;;21.80;39.20;;;;;;5085262;28;20119;-61
2023/02/15 01:16:22;;;;;;;15.82;11.50;;;21.80;39.20;;;;;;5085814;28;20040;-63
2023/02/15 01:18:50;;;;;;;13.75;10.23;;;21.80;39.30;;;;;;5085464;28;20436;-63
2023/02/15 01:21:19;;;;;;;14.30;10.70;;;21.70;39.30;;;;;;5085064;28;20134;-63
2023/02/15 01:23:47;;;;;;;13.98;9.82;;;21.70;39.40;;;;;;5106186;28;20077;-62
2023/02/15 01:26:16;;;;;;;11.50;10.13;;;21.70;39.40;;;;;;5104525;28;20124;-62
2023/02/15 01:28:45;;;;;;;14.13;9.75;;;21.70;39.50;;;;;;5104203;28;20040;-63
2023/02/15 01:31:15;;;;;;;14.20;10.75;;;21.60;39.50;;;;;;5085483;28;20043;-64
2023/02/15 01:33:42;;;;;;;16.08;10.00;;;21.60;39.60;;;;;;5085076;28;20071;-62
2023/02/15 01:36:10;;;;;;;14.63;10.27;;;21.60;39.70;;;;;;5083974;28;20504;-64
2023/02/15 01:38:39;;;;;;;14.55;9.10;;;21.60;39.70;;;;;;5105297;28;20047;-63
2023/02/15 01:41:23;;;;;;;15.10;9.85;;;21.60;39.70;;;;;;5105744;28;20071;-62
2023/02/15 01:43:53;;;;;;;16.48;10.80;;;21.50;39.80;;;;;;5089351;28;20140;-62
2023/02/15 01:46:28;;;;;;;16.65;10.93;;;21.50;40.00;;;;;;5084019;28;20863;-61
2023/02/15 01:49:02;;;;;;;14.82;10.73;;;21.50;40.10;;;;;;5085286;28;20051;-61
2023/02/15 01:51:31;;;;;;;15.27;10.40;;;21.50;40.20;;;;;;5084008;28;20059;-61
2023/02/15 01:54:03;;;;;;;15.27;10.20;;;21.40;40.20;;;;;;5086347;28;20110;-62
2023/02/15 01:56:34;;;;;;;10.75;9.02;;;21.40;40.20;;;;;;5105707;28;20058;-62
2023/02/15 01:59:09;;;;;;;15.77;9.50;;;21.40;40.20;;;;;;5104326;28;20080;-63
2023/02/15 02:01:36;;;;;;;13.55;9.48;;;21.40;40.20;;;;;;5105548;28;20479;-62
2023/02/15 02:04:09;;;;;;;13.27;9.23;;;21.30;40.20;;;;;;5105485;28;20122;-61
2023/02/15 02:06:38;;;;;;;14.20;10.57;;;21.30;40.30;;;;;;5105605;28;20070;-62
2023/02/15 02:09:07;;;;;;;12.43;9.93;;;21.30;40.30;;;;;;5105812;28;20036;-62
2023/02/15 02:11:35;;;;;;;14.55;10.15;;;21.30;40.40;;;;;;5100505;28;20047;-62
2023/02/15 02:14:04;;;;;;;15.82;10.77;;;21.30;40.60;;;;;;5083619;28;20102;-62
2023/02/15 02:16:43;;;;;;;13.20;9.73;;;21.30;40.70;;;;;;5084735;28;20040;-63
2023/02/15 02:19:40;;;;;;;15.57;9.65;;;21.30;40.70;;;;;;5085180;28;20044;-63
2023/02/15 02:22:49;;;;;;;11.93;8.80;;;21.30;41.20;;;;;;5086015;28;20155;-66
2023/02/15 02:25:44;;;;;;;15.40;10.25;;;21.20;40.60;;;;;;5037560;28;20057;-62
2023/02/15 02:28:34;;;;;;;10.50;9.30;;;21.20;40.80;;;;;;5045563;28;20057;-62
2023/02/15 02:31:30;;;;;;;15.48;10.73;;;21.10;40.80;;;;;;5015950;28;20072;-62
2023/02/15 02:34:05;;;;;;;12.32;8.60;;;21.10;40.90;;;;;;5025586;28;20042;-62
2023/02/15 02:36:41;;;;;;;12.65;9.23;;;21.10;41.00;;;;;;5009121;28;20053;-61
2023/02/15 02:39:15;;;;;;;10.50;8.68;;;21.10;41.00;;;;;;5009025;28;20120;-62
2023/02/15 02:41:56;;;;;;;12.57;9.63;;;21.10;41.00;;;;;;5025342;28;20049;-62
2023/02/15 02:44:28;;;;;;;13.40;9.60;;;21.00;41.00;;;;;;5025222;28;20434;-62
2023/02/15 02:47:00;;;;;;;12.57;8.52;;;21.00;41.00;;;;;;5008545;28;20045;-62
2023/02/15 02:49:36;;;;;;;13.18;9.02;;;21.00;40.90;;;;;;5008765;28;20223;-62
2023/02/15 02:52:06;;;;;;;12.45;10.30;;;21.00;40.90;;;;;;5024988;28;20123;-62
2023/02/15 02:54:35;;;;;;;12.27;9.30;;;21.00;40.90;;;;;;5030641;28;20619;-62
2023/02/15 02:57:06;;;;;;;12.95;9.43;;;21.00;40.90;;;;;;5044798;28;20047;-61
2023/02/15 02:59:38;;;;;;;12.02;8.75;;;21.00;40.90;;;;;;5028388;28;20201;-61
2023/02/15 03:02:13;;;;;;;13.50;10.10;;;21.00;40.90;;;;;;5058523;28;20048;-62
2023/02/15 03:04:45;;;;;;;12.70;9.05;;;20.90;40.90;;;;;;5086790;28;20117;-62
2023/02/15 03:07:17;;;;;;;11.50;8.25;;;20.90;40.90;;;;;;5086479;28;20147;-62
2023/02/15 03:09:48;;;;;;;14.00;9.52;;;20.90;40.90;;;;;;5086608;28;20086;-62
2023/02/15 03:12:20;;;;;;;14.30;10.57;;;20.90;40.90;;;;;;5087915;28;20472;-62
2023/02/15 03:14:52;;;;;;;11.80;9.23;;;20.90;40.90;;;;;;5100088;28;20530;-63
2023/02/15 03:17:24;;;;;;;13.25;10.18;;;20.90;40.90;;;;;;5106884;28;20044;-63
2023/02/15 03:19:56;;;;;;;10.68;9.25;;;20.90;40.90;;;;;;5107874;28;20042;-62
2023/02/15 03:22:29;;;;;;;11.98;8.38;;;20.80;40.90;;;;;;5106576;28;20824;-63
2023/02/15 03:25:00;;;;;;;12.25;9.13;;;20.80;40.90;;;;;;5106547;28;20134;-61
2023/02/15 03:27:32;;;;;;;13.20;9.45;;;20.80;40.90;;;;;;5106426;28;20104;-62
2023/02/15 03:30:04;;;;;;;12.45;8.20;;;20.80;41.00;;;;;;5094784;28;20769;-62
2023/02/15 03:32:34;;;;;;;10.52;8.57;;;20.80;41.10;;;;;;5087669;28;20684;-61
2023/02/15 03:35:05;;;;;;;13.25;9.15;;;20.80;41.10;;;;;;5087561;28;20531;-60
2023/02/15 03:37:38;;;;;;;12.00;8.43;;;20.80;41.20;;;;;;5087977;28;20040;-61
2023/02/15 03:42:59;;;;;;;9.73;8.73;;;20.80;41.20;;;;;;5087155;28;20051;-61
2023/02/15 03:45:31;;;;;;;8.80;7.33;;;20.80;41.20;;;;;;5087326;28;20051;-62
2023/02/15 03:48:02;;;;;;;10.93;8.68;;;20.70;41.30;;;;;;5092481;28;20633;-62
2023/02/15 03:53:22;;;;;;;17.38;10.05;;;20.70;41.30;;;;;;5108114;28;20059;-62
2023/02/15 03:55:50;;;;;;;11.20;8.30;;;20.70;41.40;;;;;;5107668;28;20079;-61
2023/02/15 04:04:03;;;;;;;11.57;8.93;;;20.70;41.40;;;;;;5107247;28;20046;-63
2023/02/15 07:17:42;;;;;;;21.35;16.17;;;21.10;39.20;;;;;;6164019;22;1475069;-62
2023/02/15 07:20:12;;;;;;;25.23;16.90;;;21.00;39.30;;;;;;6209780;23;20023;-61
2023/02/15 07:22:39;;;;;;;30.20;21.42;;;20.80;39.00;;;;;;6212856;23;20040;-63
2023/02/15 07:25:08;;;;;;;29.48;21.52;;;20.70;38.80;;;;;;6213123;23;20732;-60
2023/02/15 07:27:35;;;;;;;35.13;21.25;;;20.50;38.00;;;;;;6212106;23;20031;-60
2023/02/15 07:30:03;;;;;;;34.45;21.80;;;20.40;37.90;;;;;;6213304;23;20020;-59
2023/02/15 07:32:31;;;;;;;29.55;21.73;;;20.20;37.80;;;;;;6214013;23;20107;-61
2023/02/15 07:35:00;;;;;;;34.40;22.52;;;20.10;37.60;;;;;;6215343;23;20021;-61
2023/02/15 07:37:28;;;;;;;35.25;23.52;;;20.00;37.50;;;;;;6213418;23;20020;-62
2023/02/15 07:39:55;;;;;;;32.80;22.23;;;19.90;37.30;;;;;;6215013;23;20044;-62
2023/02/15 07:42:22;;;;;;;32.60;22.45;;;19.80;37.50;;;;;;6215437;23;20032;-58
2023/02/15 07:44:49;;;;;;;39.75;25.17;;;19.70;37.30;;;;;;6212417;23;20017;-61
2023/02/15 07:47:16;;;;;;;44.38;24.52;;;19.60;37.30;;;;;;6214625;23;20059;-69
2023/02/15 07:49:43;;;;;;;36.83;23.45;;;19.60;37.40;;;;;;6213842;23;20020;-71
2023/02/15 07:52:12;;;;;;;32.75;21.73;;;19.50;37.40;;;;;;6215351;23;20046;-69
2023/02/15 07:54:39;;;;;;;42.95;25.35;;;19.30;37.20;;;;;;6215564;23;20366;-71
2023/02/15 07:57:06;;;;;;;34.35;24.40;;;19.20;37.20;;;;;;6214486;23;20189;-68
2023/02/15 07:59:33;;;;;;;38.65;25.20;;;19.10;37.40;;;;;;6215118;23;20112;-72
2023/02/15 08:02:00;;;;;;;33.17;22.60;;;19.10;37.40;;;;;;6215660;23;20016;-75
2023/02/15 08:04:27;;;;;;;39.60;25.20;;;19.00;37.50;;;;;;6215789;23;20017;-75
2023/02/15 08:06:55;;;;;;;40.47;25.92;;;18.90;37.50;;;;;;6215130;23;20217;-63
2023/02/15 08:09:23;;;;;;;42.95;26.88;;;18.90;37.50;;;;;;6212113;23;20025;-60
2023/02/15 08:11:50;;;;;;;36.83;24.65;;;18.80;37.40;;;;;;6208551;23;20366;-62
2023/02/15 08:14:19;;;;;;;40.22;26.63;;;18.80;37.60;;;;;;6208317;23;20095;-63
2023/02/15 08:16:47;;;;;;;37.40;26.20;;;18.70;37.50;;;;;;6207609;23;20021;-62
2023/02/15 08:19:17;;;;;;;39.97;25.42;;;18.60;37.40;;;;;;6204708;23;20028;-64
2023/02/15 08:21:46;;;;;;;40.03;25.15;;;18.60;37.50;;;;;;6203239;23;20029;-62
2023/02/15 08:24:15;;;;;;;36.38;25.65;;;18.50;37.60;;;;;;6208011;23;20354;-64
2023/02/15 08:26:46;;;;;;;38.25;25.65;;;18.50;37.60;;;;;;6203868;23;20091;-70
2023/02/15 08:29:14;;;;;;;38.05;25.85;;;18.40;37.60;;;;;;6207699;23;20096;-68
2023/02/15 08:31:41;;;;;;;43.05;25.65;;;18.30;37.60;;;;;;6207785;23;20016;-64
2023/02/15 08:34:09;;;;;;;37.92;25.95;;;18.30;37.80;;;;;;6208092;23;20017;-61
2023/02/15 08:36:36;;;;;;;39.78;23.75;;;18.30;37.80;;;;;;6209180;23;20027;-74
2023/02/15 08:39:05;;;;;;;39.65;25.42;;;18.20;38.00;;;;;;6208791;23;20424;-75
2023/02/15 08:41:34;;;;;;;39.03;24.48;;;18.20;38.10;;;;;;6212201;23;20075;-77
2023/02/15 08:44:05;;;;;;;38.20;25.67;;;18.10;38.10;;;;;;6209371;23;20573;-66
2023/02/15 08:46:35;;;;;;;36.65;24.15;;;18.00;38.20;;;;;;6210209;23;20824;-77
2023/02/15 08:49:02;;;;;;;48.35;27.05;;;18.10;38.40;;;;;;6212477;23;20017;-78
2023/02/15 08:51:31;;;;;;;37.92;26.20;;;18.00;38.30;;;;;;6208628;23;20447;-65
2023/02/15 08:53:59;;;;;;;44.90;25.55;;;17.90;38.40;;;;;;6209714;23;20088;-63
2023/02/15 08:56:28;;;;;;;37.03;25.80;;;17.80;38.40;;;;;;6212119;23;20016;-76
2023/02/15 08:58:56;;;;;;;38.47;26.58;;;17.70;38.60;;;;;;6208193;23;20028;-65
2023/02/15 09:01:26;;;;;;;46.60;25.08;;;17.70;38.70;;;;;;6208344;23;20084;-70
2023/02/15 09:03:58;;;;;;;43.40;26.88;;;17.70;38.80;;;;;;6210765;23;20016;-68
2023/02/15 09:06:25;;;;;;;41.55;23.63;;;17.60;38.80;;;;;;6212414;23;20050;-70
2023/02/15 09:08:53;;;;;;;36.67;24.10;;;17.60;39.10;;;;;;6210983;23;20020;-68
2023/02/15 09:11:23;;;;;;;34.75;23.08;;;17.70;39.40;;;;;;6211182;23;20017;-67
2023/02/15 09:13:53;;;;;;;44.17;23.80;;;17.80;39.40;;;;;;6209940;23;20055;-66
2023/02/15 09:16:21;;;;;;;38.95;24.40;;;17.80;39.30;;;;;;6211587;23;20023;-66
2023/02/15 09:18:49;;;;;;;42.85;26.67;;;17.90;39.20;;;;;;6209141;23;20386;-66
2023/02/15 09:21:18;;;;;;;47.45;25.02;;;18.00;39.10;;;;;;6207559;23;20104;-63
2023/02/15 09:23:47;;;;;;;44.85;26.75;;;18.10;39.20;;;;;;6207862;23;20017;-65
2023/02/15 09:26:16;;;;;;;41.67;25.35;;;18.10;39.80;;;;;;6208281;23;20021;-64
2023/02/15 09:28:44;;;;;;;63.92;32.78;;;18.30;39.00;;;;;;6208220;23;20013;-70
2023/02/15 09:31:13;;;;;;;59.17;35.03;;;18.40;39.00;;;;;;6209153;23;20016;-66
2023/02/15 09:33:41;;;;;;;62.38;35.25;;;18.40;38.90;;;;;;6207229;23;20406;-63
2023/02/15 09:36:17;;;;;;;57.50;35.30;;;18.50;38.80;;;;;;6208262;23;20075;-62
2023/02/15 09:38:44;;;;;;;49.25;32.17;;;18.60;38.70;;;;;;6208166;23;20062;-62
2023/02/15 09:41:51;;;;;;;52.35;33.95;;;18.60;38.50;;;;;;6208209;23;20021;-63
2023/02/15 09:44:28;;;;;;;53.20;32.37;;;18.70;38.50;;;;;;6208227;23;20100;-59
2023/02/15 09:47:13;;;;;;;52.38;32.28;;;18.70;38.40;;;;;;6207650;23;20526;-61
2023/02/15 09:49:50;;;;;;;55.25;29.75;;;18.70;38.20;;;;;;6208025;23;20699;-58
2023/02/15 09:52:43;;;;;;;50.80;30.42;;;18.70;38.00;;;;;;6208208;23;20096;-66
2023/02/15 09:55:23;;;;;;;45.95;30.10;;;18.80;38.00;;;;;;6207859;23;20020;-69
2023/02/15 09:58:02;;;;;;;50.40;30.50;;;18.80;37.90;;;;;;6208225;23;20012;-56
2023/02/15 10:00:37;;;;;;;46.47;28.77;;;18.80;37.80;;;;;;6208400;23;20012;-65
2023/02/15 10:03:20;;;;;;;40.90;26.80;;;18.90;38.10;;;;;;6208154;23;20020;-57
2023/02/15 10:06:04;;;;;;;38.85;26.45;;;18.90;37.90;;;;;;6207990;23;20027;-69
2023/02/15 10:08:54;;;;;;;66.57;36.70;;;19.00;37.70;;;;;;6204297;23;20068;-63
2023/02/15 10:11:42;;;;;;;62.50;33.63;;;19.10;37.80;;;;;;6203810;23;20053;-56
2023/02/15 10:14:43;;;;;;;55.25;31.27;;;19.20;37.70;;;;;;6203351;23;20017;-61
2023/02/15 10:17:25;;;;;;;46.78;31.10;;;19.20;37.60;;;;;;6204778;23;20016;-62
2023/02/15 10:20:05;;;;;;;57.17;29.33;;;19.20;37.30;;;;;;6205679;23;20374;-61
2023/02/15 10:22:41;;;;;;;50.72;32.42;;;19.20;37.20;;;;;;6208089;23;20094;-62
2023/02/15 10:25:23;;;;;;;47.85;30.10;;;19.30;37.20;;;;;;6207999;23;20048;-62
2023/02/15 10:27:50;;;;;;;48.97;29.15;;;19.30;37.10;;;;;;6207072;23;20096;-62
2023/02/15 10:30:26;;;;;;;44.90;28.88;;;19.30;37.10;;;;;;6207012;23;20370;-62
2023/02/15 10:33:00;;;;;;;54.00;31.00;;;19.30;36.90;;;;;;6207510;23;20091;-62
2023/02/15 10:35:38;;;;;;;47.67;29.92;;;19.40;36.90;;;;;;6206678;23;20021;-59
2023/02/15 10:38:15;;;;;;;45.25;30.10;;;19.40;36.80;;;;;;6207773;23;20029;-52
2023/02/15 10:40:52;;;;;;;43.33;28.50;;;19.40;36.80;;;;;;6205611;23;20017;-56
2023/02/15 10:43:32;;;;;;;43.17;29.50;;;19.50;36.90;;;;;;6205889;23;20040;-59
2023/02/15 10:46:07;;;;;;;49.20;30.80;;;19.40;36.80;;;;;;6208446;23;20075;-63
2023/02/15 10:48:55;;;;;;;54.30;29.10;;;19.50;36.90;;;;;;6205710;23;20346;-57
2023/02/15 10:51:31;;;;;;;47.70;29.73;;;19.50;36.90;;;;;;6207867;23;20021;-63
2023/02/15 10:54:10;;;;;;;39.55;27.70;;;19.50;36.90;;;;;;6207220;23;20091;-59
2023/02/15 10:56:48;;;;;;;44.70;29.38;;;19.50;36.90;;;;;;6207089;23;20020;-56
2023/02/15 10:59:31;;;;;;;46.47;29.83;;;19.60;36.90;;;;;;6207179;23;20100;-58
2023/02/15 11:02:02;;;;;;;42.15;27.75;;;19.60;36.80;;;;;;6207111;23;20048;-57
2023/02/15 11:04:44;;;;;;;42.00;28.13;;;19.60;36.70;;;;;;6207128;23;20087;-55
2023/02/15 11:07:19;;;;;;;45.85;27.95;;;19.70;36.40;;;;;;6209998;23;20091;-72
2023/02/15 11:09:50;;;;;;;43.70;27.27;;;19.70;36.40;;;;;;6210167;23;20012;-71
2023/02/15 11:12:24;;;;;;;51.60;29.02;;;19.70;36.30;;;;;;6210550;23;20017;-72
2023/02/15 11:14:58;;;;;;;49.22;30.95;;;19.70;36.10;;;;;;6208110;23;20021;-72
2023/02/15 11:17:31;;;;;;;47.80;28.30;;;19.70;36.20;;;;;;6211021;23;20455;-72
2023/02/15 11:20:06;;;;;;;42.58;28.35;;;19.70;36.10;;;;;;6212425;23;20017;-70
2023/02/15 11:22:35;;;;;;;43.65;29.20;;;19.70;36.10;;;;;;6211052;23;20048;-60
2023/02/15 11:25:05;;;;;;;44.97;30.23;;;19.70;36.10;;;;;;6208944;23;20023;-71
2023/02/15 11:27:34;;;;;;;49.45;30.20;;;19.60;36.10;;;;;;6211476;23;20013;-61
2023/02/15 11:30:04;;;;;;;55.20;31.73;;;19.70;36.40;;;;;;6210827;23;20013;-64
2023/02/15 11:32:34;;;;;;;45.92;32.00;;;19.70;36.80;;;;;;6210555;23;20024;-64
2023/02/15 11:35:05;;;;;;;50.80;32.67;;;19.70;37.30;;;;;;6212362;23;20710;-64
2023/02/15 11:37:38;;;;;;;45.75;31.73;;;19.70;38.30;;;;;;6211607;23;20717;-71
2023/02/15 11:40:20;;;;;;;43.35;29.67;;;19.70;37.80;;;;;;6211744;23;20020;-57
2023/02/15 11:42:50;;;;;;;46.58;31.30;;;19.70;37.70;;;;;;6210381;23;20021;-54
2023/02/15 11:45:26;;;;;;;44.95;29.33;;;19.60;37.70;;;;;;6211156;23;20092;-57
2023/02/15 11:47:54;;;;;;;47.78;30.15;;;19.50;37.80;;;;;;6212249;23;20039;-62
2023/02/15 11:50:24;;;;;;;53.03;28.92;;;19.50;37.90;;;;;;6212604;23;20493;-68
2023/02/15 11:52:53;;;;;;;50.20;32.22;;;19.50;38.50;;;;;;6214571;23;20016;-69
2023/02/15 11:55:23;;;;;;;47.28;33.05;;;19.40;38.50;;;;;;6212780;23;20474;-68
2023/02/15 11:57:55;;;;;;;48.45;32.53;;;19.50;38.70;;;;;;6210519;23;20406;-54
2023/02/15 12:00:35;;;;;;;50.30;32.50;;;19.50;38.70;;;;;;6207678;23;20366;-50
2023/02/15 12:03:10;;;;;;;45.67;31.08;;;19.50;39.10;;;;;;6208969;23;20091;-56
2023/02/15 12:05:41;;;;;;;52.20;31.17;;;19.60;38.50;;;;;;6208474;23;20043;-56
2023/02/15 12:08:14;;;;;;;52.38;31.30;;;19.60;38.20;;;;;;6210495;23;20020;-62
2023/02/15 12:10:50;;;;;;;42.60;30.85;;;19.70;38.10;;;;;;6211501;23;20013;-63
2023/02/15 12:13:19;;;;;;;;;;;19.70;38.00;;;;;;6211376;23;20163;-64
2023/02/15 12:15:49;;;;;;;39.53;27.75;;;19.60;38.30;;;;;;6211875;23;20674;-62
2023/02/15 12:18:34;;;;;;;47.42;30.95;;;19.60;38.10;;;;;;6210043;23;20021;-57
2023/02/15 12:21:04;;;;;;;41.45;29.38;;;19.70;38.00;;;;;;6210127;23;20021;-61
2023/02/15 12:23:33;;;;;;;38.70;29.45;;;19.70;38.60;;;;;;6210010;23;20477;-58
2023/02/15 12:26:01;;;;;;;45.75;29.92;;;19.70;37.90;;;;;;6211810;23;20353;-64
2023/02/15 12:28:33;;;;;;;48.88;31.80;;;19.70;37.80;;;;;;6210940;23;20016;-63
2023/02/15 12:31:02;;;;;;;44.63;30.10;;;19.80;37.80;;;;;;6212368;23;20052;-61
2023/02/15 12:33:33;;;;;;;44.50;29.67;;;19.80;37.80;;;;;;6211950;23;20476;-62
2023/02/15 12:36:04;;;;;;;43.13;29.98;;;19.80;37.70;;;;;;6210413;23;20074;-64
2023/02/15 12:38:31;;;;;;;42.90;30.20;;;19.80;37.60;;;;;;6210935;23;20013;-66
2023/02/15 12:41:00;;;;;;;41.55;28.33;;;19.90;37.70;;;;;;6211551;23;20042;-64
2023/02/15 12:43:31;;;;;;;46.58;30.13;;;19.90;37.50;;;;;;6211397;23;20115;-64
2023/02/15 12:46:19;;;;;;;41.72;29.52;;;19.90;37.50;;;;;;6213895;23;20040;-63
2023/02/15 12:48:46;;;;;;;44.05;30.23;;;19.90;37.30;;;;;;6213298;23;20017;-64
2023/02/15 12:51:16;;;;;;;43.63;28.63;;;19.90;37.40;;;;;;6211149;23;20348;-64
2023/02/15 12:53:43;;;;;;;41.53;29.42;;;19.90;37.30;;;;;;6207170;23;20079;-64
2023/02/15 12:56:11;;;;;;;40.63;28.13;;;20.00;37.40;;;;;;6203832;23;20579;-64
2023/02/15 12:58:41;;;;;;;47.05;31.50;;;20.00;37.40;;;;;;6209150;23;20421;-62
2023/02/15 13:01:13;;;;;;;37.47;26.85;;;20.00;37.40;;;;;;6211723;23;20055;-62
2023/02/15 13:03:55;;;;;;;41.03;27.45;;;20.00;37.20;;;;;;6208883;23;20099;-54
2023/02/15 13:06:23;;;;;;;39.83;26.92;;;20.00;37.20;;;;;;6208846;23;20012;-65
2023/02/15 13:08:52;;;;;;;37.83;27.15;;;20.00;37.30;;;;;;6210583;23;20021;-61
2023/02/15 13:11:25;;;;;;;38.95;27.05;;;20.00;37.30;;;;;;6208458;23;20017;-62
2023/02/15 13:13:57;;;;;;;42.92;28.33;;;20.10;37.30;;;;;;6209259;23;20100;-64
2023/02/15 13:16:31;;;;;;;35.75;26.35;;;20.10;37.30;;;;;;6209305;23;20503;-62
2023/02/15 13:19:04;;;;;;;44.80;28.08;;;20.10;37.30;;;;;;6208214;23;20021;-65
2023/02/15 13:21:36;;;;;;;39.83;26.83;;;20.20;37.30;;;;;;6209553;23;20017;-63
2023/02/15 13:24:08;;;;;;;41.17;28.48;;;20.10;37.40;;;;;;6209541;23;20016;-62
2023/02/15 13:26:36;;;;;;;36.90;25.92;;;20.10;37.30;;;;;;6208894;23;20075;-59
2023/02/15 13:29:09;;;;;;;43.55;27.92;;;20.20;37.60;;;;;;6210317;23;20031;-63
2023/02/15 13:31:37;;;;;;;41.03;28.58;;;20.20;37.60;;;;;;6209030;23;20040;-63
2023/02/15 13:34:11;;;;;;;34.72;26.05;;;20.20;37.70;;;;;;6208679;23;20016;-61
2023/02/15 13:36:47;;;;;;;36.97;26.63;;;20.20;37.70;;;;;;6208407;23;20012;-62
2023/02/15 13:39:23;;;;;;;36.17;27.90;;;20.20;37.60;;;;;;6211375;23;20050;-65
2023/02/15 13:41:57;;;;;;;36.58;26.65;;;20.20;37.60;;;;;;6211753;23;20023;-69
2023/02/15 13:44:46;;;;;;;43.03;26.60;;;20.30;37.70;;;;;;6212313;23;20116;-66
2023/02/15 13:47:22;;;;;;;36.78;26.88;;;20.20;37.70;;;;;;6207250;23;20024;-59
2023/02/15 13:49:54;;;;;;;;;;;20.30;37.80;;;;;;6208753;23;20016;-56
2023/02/15 13:52:23;;;;;;;36.40;25.15;;;20.20;38.10;;;;;;6208083;23;20350;-54
2023/02/15 13:55:21;;;;;;;35.25;26.88;;;20.10;38.00;;;;;;6210011;23;20020;-64
2023/02/15 13:58:22;;;;;;;35.50;26.00;;;20.20;38.00;;;;;;6212419;23;20088;-64
2023/02/15 14:01:01;;;;;;;38.25;27.38;;;20.20;37.90;;;;;;6212756;23;20024;-62
2023/02/15 14:04:17;;;;;;;38.08;24.58;;;20.20;38.10;;;;;;6211251;23;20362;-57
2023/02/15 14:06:58;;;;;;;33.33;25.33;;;20.20;38.00;;;;;;6146110;23;20021;-56
2023/02/15 14:09:39;;;;;;;36.00;24.90;;;20.10;38.10;;;;;;6144524;23;20068;-55
2023/02/15 14:12:25;;;;;;;32.20;22.75;;;20.10;38.10;;;;;;6144931;23;20056;-57
2023/02/15 14:15:15;;;;;;;33.28;23.08;;;20.20;38.10;;;;;;6144627;23;20033;-56
2023/02/15 14:17:56;;;;;;;33.75;23.08;;;20.20;38.10;;;;;;6144747;23;20121;-54
2023/02/15 14:20:31;;;;;;;38.75;23.55;;;20.20;38.20;;;;;;6143635;23;20134;-51
2023/02/15 14:23:06;;;;;;;44.00;24.58;;;20.10;38.20;;;;;;6144508;23;20092;-56
2023/02/15 14:25:41;;;;;;;36.97;21.55;;;20.10;38.20;;;;;;6144232;23;20025;-56
2023/02/15 14:28:13;;;;;;;29.35;22.75;;;20.10;38.30;;;;;;6144485;23;20062;-52
2023/02/15 14:30:43;;;;;;;37.13;23.98;;;20.10;38.20;;;;;;6144299;23;20022;-58
2023/02/15 14:33:27;;;;;;;44.58;25.08;;;20.20;38.30;;;;;;6144214;23;20021;-55
2023/02/15 14:35:56;;;;;;;34.95;23.13;;;20.10;38.30;;;;;;6145755;23;20033;-58
2023/02/15 14:38:32;;;;;;;28.65;22.63;;;20.10;38.40;;;;;;6144054;23;20092;-58
2023/02/15 14:41:06;;;;;;;31.88;23.42;;;20.20;38.50;;;;;;6185561;23;20028;-60
2023/02/15 14:43:50;;;;;;;32.60;22.70;;;20.10;38.40;;;;;;6208670;23;20486;-55
2023/02/15 14:46:26;;;;;;;31.85;23.63;;;20.20;38.20;;;;;;6207750;23;20047;-57
2023/02/15 14:48:57;;;;;;;37.65;23.98;;;20.20;38.30;;;;;;6205544;23;20043;-56
2023/02/15 14:51:56;;;;;;;33.97;20.77;;;20.20;38.30;;;;;;6207323;23;20016;-58
2023/02/15 14:54:56;;;;;;;32.40;22.15;;;20.30;38.20;;;;;;6209409;23;20027;-63
2023/02/15 14:57:31;;;;;;;30.67;22.00;;;20.20;38.10;;;;;;6208685;23;20405;-62
2023/02/15 15:00:00;;;;;;;30.30;20.70;;;20.20;38.00;;;;;;6210997;23;20021;-62
2023/02/15 15:02:30;;;;;;;33.40;23.02;;;20.20;37.90;;;;;;6207789;23;20043;-61
2023/02/15 15:05:03;;;;;;;26.85;20.58;;;20.20;37.70;;;;;;6209532;23;20032;-61
2023/02/15 15:07:42;;;;;;;31.77;22.70;;;20.20;37.50;;;;;;6209032;23;20087;-61
2023/02/15 15:10:39;;;;;;;33.63;20.92;;;20.30;37.80;;;;;;6208284;23;20395;-57
2023/02/15 15:13:53;;;;;;;30.83;21.65;;;20.30;37.40;;;;;;6210410;23;20116;-62
2023/02/15 15:16:51;;;;;;;28.52;19.67;;;20.30;37.30;;;;;;6208241;23;20028;-62
2023/02/15 15:20:03;;;;;;;25.13;19.20;;;20.30;37.30;;;;;;6148283;23;20026;-58
2023/02/15 15:22:34;;;;;;;29.75;21.50;;;20.30;37.10;;;;;;6147262;23;20329;-61
2023/02/15 15:25:02;;;;;;;41.60;20.60;;;20.30;37.20;;;;;;6146516;23;20491;-59
2023/02/15 15:27:45;;;;;;;29.75;22.23;;;20.30;37.10;;;;;;6149161;23;20043;-59
2023/02/15 15:31:00;;;;;;;27.95;20.65;;;20.40;37.00;;;;;;6148251;23;20025;-59
2023/02/15 15:34:24;;;;;;;32.70;19.05;;;20.50;36.90;;;;;;6148927;23;20559;-63
2023/02/15 15:37:33;;;;;;;31.05;20.50;;;20.60;36.90;;;;;;6151271;23;20483;-61
2023/02/15 15:40:51;;;;;;;23.90;19.08;;;20.70;36.90;;;;;;6150072;23;20045;-61
2023/02/15 15:43:54;;;;;;;28.73;19.67;;;20.80;36.80;;;;;;6149647;23;20036;-58
2023/02/15 15:46:58;;;;;;;32.15;22.38;;;20.90;36.70;;;;;;6147380;23;20096;-63
2023/02/15 15:49:30;;;;;;;34.08;20.40;;;21.00;36.50;;;;;;6148136;23;20708;-58
2023/02/15 15:52:01;;;;;;;30.35;19.02;;;21.00;36.30;;;;;;6146912;23;20040;-59
2023/02/15 15:54:28;;;;;;;28.65;18.05;;;21.10;36.10;;;;;;6162042;23;20475;-61
2023/02/15 15:56:58;;;;;;;12.65;11.27;;;21.10;35.90;;;;;;6209434;23;20017;-59
2023/02/15 15:59:28;;;;;;;23.17;12.43;;;21.10;35.40;;;;;;6212400;23;20887;-64
2023/02/15 16:01:56;;;;;;;29.88;17.83;;;21.10;35.10;;;;;;6211705;23;20043;-67
2023/02/15 16:04:26;;;;;;;26.15;17.50;;;21.10;35.20;;;;;;6210843;23;20092;-61
2023/02/15 16:06:53;;;;;;;23.75;15.52;;;21.10;35.30;;;;;;6209834;23;20324;-56
2023/02/15 16:09:23;;;;;;;20.25;15.30;;;21.00;35.30;;;;;;6210282;23;20295;-58
2023/02/15 16:11:52;;;;;;;20.15;15.15;;;21.00;35.10;;;;;;6210062;23;20024;-66
2023/02/15 16:14:27;;;;;;;11.77;7.63;;;21.00;35.20;;;;;;6210101;23;20112;-62
2023/02/15 16:16:58;;;;;;;10.85;9.13;;;20.90;35.20;;;;;;6209383;23;20070;-61
2023/02/15 16:19:28;;;;;;;20.98;14.00;;;20.90;35.30;;;;;;6209450;23;20475;-57
2023/02/15 16:21:58;;;;;;;25.30;15.50;;;20.90;35.60;;;;;;6208664;23;20056;-57
2023/02/15 16:25:00;;;;;;;23.67;16.90;;;20.80;36.10;;;;;;6209187;23;20040;-68